MMGL

Don Miguel Hidalgo Y Costilla International Airport

Guadalajara, Mexico
TAF MMGL 211637Z 2118/2224 16006KT 6SM HZ SCT025 BKN080 BKN250 TX29/2121Z TN16/2212Z BECMG 2122/2123 SCT020CB PROB40 2200/2204 5SM TSRA BKN020CB FM220600 00000KT 6SM HZ SCT015 TEMPO 2211/2215 3SM BR HZ BKN010 FM221600 08005KT 6SM HZ SCT020 SCT280 FM221900 08010KT P6SM SCT280
Issued Valid From Valid To
Jul-21 @ 16:37 UTC
(7 hours ago)
Jul-21 @ 18:00 UTC
(5 hours ago)
Jul-23 @ 00:00 UTC
(-1 days ago)
Expired Click to View Jul-21 @ 18:00 to Jul-21 @ 22:00
TAF MMGL 211637Z 2118/2224 16006KT 6SM HZ SCT025 BKN080 BKN250 TX29/2121Z TN16/2212Z
Wind Visibility Clouds Conditions
160° at 6 knots 6 miles
  • Scattered at 2,500' AGL
  • Broken at 8,000' AGL
  • Broken at 25,000' AGL
  • Haze
Becoming Jul-21 @ 22:00 to Jul-22 @ 06:00
BECMG 2122/2123 SCT020CB
Wind Visibility Clouds Conditions
160° at 6 knots 6 miles
  • Scattered at 2,000' AGL
  • Haze
Probable  (Probability 40%) Jul-22 @ 00:00 to Jul-22 @ 04:00
PROB40 2200/2204 5SM TSRA BKN020CB
Visibility Clouds Conditions
5 miles
  • Broken at 2,000' AGL
  • Thunderstorm
  • Rain
From Jul-22 @ 06:00 to Jul-22 @ 16:00
FM220600 00000KT 6SM HZ SCT015
Visibility Clouds Conditions
6 miles
  • Scattered at 1,500' AGL
  • Haze
Temporary Jul-22 @ 11:00 to Jul-22 @ 15:00
TEMPO 2211/2215 3SM BR HZ BKN010
Visibility Clouds Conditions
3 miles
  • Broken at 1,000' AGL
  • Mist
  • Haze
From Jul-22 @ 16:00 to Jul-22 @ 19:00
FM221600 08005KT 6SM HZ SCT020 SCT280
Wind Visibility Clouds Conditions
80° at 5 knots 6 miles
  • Scattered at 2,000' AGL
  • Scattered at 28,000' AGL
  • Haze
From Jul-22 @ 19:00 to Jul-23 @ 00:00
FM221900 08010KT P6SM SCT280
Wind Visibility Clouds
80° at 10 knots Greater than 6 miles
  • Scattered at 28,000' AGL
TAF MMGL 211637Z 2118/2224 16006KT 6SM HZ SCT025 BKN080 BKN250 TX29/2121Z TN16/2212Z BECMG 2122/2123 SCT020CB PROB40 2200/2204 5SM TSRA BKN020CB FM220600 00000KT 6SM HZ SCT015 TEMPO 2211/2215 3SM BR HZ BKN010 FM221600 08005KT 6SM HZ SCT020 SCT280 FM221900 08010KT P6SM SCT280
Issued Jul-21 @ 16:37 UTC
(7 hours ago)
Valid From Jul-21 @ 18:00 UTC
(5 hours ago)
Valid To Jul-23 @ 00:00 UTC
(-1 days ago)
Jul-21 @ 18:00 - Jul-21 @ 22:00
Wind Visibility
160° at 6 knots 6 miles
Clouds
  • Scattered at 2,500' AGL
  • Broken at 8,000' AGL
  • Broken at 25,000' AGL
Conditions
  • Haze
Becoming Jul-21 @ 22:00 - Jul-22 @ 06:00
Wind Visibility
160° at 6 knots 6 miles
Clouds
  • Scattered at 2,000' AGL
Conditions
  • Haze
Probability 40% Probable Jul-22 @ 00:00 - Jul-22 @ 04:00
Clouds
  • Broken at 2,000' AGL
Conditions
  • Thunderstorm
  • Rain
From Jul-22 @ 06:00 - Jul-22 @ 16:00
Clouds
  • Scattered at 1,500' AGL
Conditions
  • Haze
Temporary Jul-22 @ 11:00 - Jul-22 @ 15:00
Clouds
  • Broken at 1,000' AGL
Conditions
  • Mist
  • Haze
From Jul-22 @ 16:00 - Jul-22 @ 19:00
Wind Visibility
80° at 5 knots 6 miles
Clouds
  • Scattered at 2,000' AGL
  • Scattered at 28,000' AGL
Conditions
  • Haze
From Jul-22 @ 19:00 - Jul-23 @ 00:00
Wind Visibility
80° at 10 knots Greater than 6 miles
Clouds
  • Scattered at 28,000' AGL